Time;durP1;ratioP1;P1;durP2;ratioP2;P2;SDS_P1;SDS_P2;PMS_P1;PMS_P2;Temp;Humidity;BMP_temperature;BMP_pressure;BME280_temperature;BME280_humidity;BME280_pressure;Samples;Min_cycle;Max_cycle;Signal;HPM_P1;HPM_P2
2022/04/22 00:01:24;;;;;;;9.98;6.43;;;8.60;1.00;;;;;;7362248;19;20761;-62
2022/04/22 00:03:54;;;;;;;9.57;6.70;;;8.60;1.00;;;;;;7362531;19;20070;-61
2022/04/22 00:06:24;;;;;;;9.27;6.97;;;8.60;1.00;;;;;;7368352;19;20026;-62
2022/04/22 00:08:54;;;;;;;8.88;7.18;;;8.60;1.00;;;;;;7366410;19;20021;-61
2022/04/22 00:11:33;;;;;;;11.80;6.65;;;8.60;1.00;;;;;;7390358;19;20081;-62
2022/04/22 00:14:11;;;;;;;;;;;8.60;1.00;;;;;;7365802;19;20781;-62
2022/04/22 00:16:41;;;;;;;11.05;7.63;;;8.50;1.00;;;;;;7367149;19;19907;-63
2022/04/22 00:19:11;;;;;;;9.82;7.05;;;8.50;1.00;;;;;;7366400;19;20026;-63
2022/04/22 00:21:42;;;;;;;9.23;7.35;;;8.50;1.00;;;;;;7367025;19;20032;-63
2022/04/22 00:24:12;;;;;;;10.48;7.40;;;8.40;1.00;;;;;;7364752;19;20019;-63
2022/04/22 00:26:42;;;;;;;10.63;7.65;;;8.30;1.00;;;;;;7365423;19;20575;-63
2022/04/22 00:29:14;;;;;;;10.27;7.07;;;8.30;1.00;;;;;;7390100;19;20014;-62
2022/04/22 00:31:44;;;;;;;10.00;7.60;;;8.20;1.00;;;;;;7365628;19;20750;-63
2022/04/22 00:34:14;;;;;;;10.48;7.72;;;8.20;1.00;;;;;;7365104;19;20020;-63
2022/04/22 00:36:44;;;;;;;11.57;7.85;;;8.10;1.00;;;;;;7367054;19;20434;-63
2022/04/22 00:39:14;;;;;;;10.00;7.93;;;8.10;1.00;;;;;;7369378;19;20437;-63
2022/04/22 00:41:43;;;;;;;10.63;7.85;;;8.10;1.00;;;;;;7367344;19;20093;-63
2022/04/22 00:44:16;;;;;;;11.30;8.35;;;8.00;1.00;;;;;;7386809;19;20014;-62
2022/04/22 00:46:46;;;;;;;12.88;8.18;;;8.00;1.00;;;;;;7363724;19;20018;-64
2022/04/22 00:49:16;;;;;;;10.68;7.80;;;8.00;1.00;;;;;;7366464;19;20473;-62
2022/04/22 00:51:47;;;;;;;12.85;8.23;;;8.00;1.00;;;;;;7365288;19;20367;-62
2022/04/22 00:54:16;;;;;;;11.30;8.10;;;8.00;1.00;;;;;;7364558;19;20017;-62
2022/04/22 00:56:46;;;;;;;12.68;8.77;;;7.90;1.00;;;;;;7365002;19;20572;-63
2022/04/22 00:59:19;;;;;;;11.88;8.65;;;7.90;1.00;;;;;;7389708;19;20087;-63
2022/04/22 01:01:49;;;;;;;10.88;8.48;;;7.90;1.00;;;;;;7363655;19;20022;-62
2022/04/22 01:09:51;;;;;;;13.57;9.30;;;7.90;1.00;;;;;;7367423;19;20030;-62
2022/04/22 01:12:21;;;;;;;11.43;9.05;;;7.80;1.10;;;;;;7361525;19;20039;-63
2022/04/22 01:14:54;;;;;;;11.43;8.50;;;7.80;1.50;;;;;;7365769;19;20013;-63
2022/04/22 01:17:27;;;;;;;14.18;8.55;;;7.70;1.70;;;;;;7386929;19;20018;-63
2022/04/22 01:19:57;;;;;;;12.52;9.02;;;7.70;2.00;;;;;;7366882;19;20542;-62
2022/04/22 01:22:29;;;;;;;15.25;9.80;;;7.70;2.40;;;;;;7360566;19;20508;-62
2022/04/22 01:25:01;;;;;;;12.77;8.65;;;7.70;2.80;;;;;;7364758;19;20555;-63
2022/04/22 01:27:32;;;;;;;13.02;9.52;;;7.70;3.10;;;;;;7364177;19;20462;-62
2022/04/22 01:30:06;;;;;;;13.65;9.68;;;7.60;3.30;;;;;;7365487;19;20077;-63
2022/04/22 01:32:37;;;;;;;15.88;10.18;;;7.50;3.30;;;;;;7361526;19;20015;-63
2022/04/22 01:35:08;;;;;;;14.38;10.57;;;7.60;3.80;;;;;;7386247;19;20092;-62
2022/04/22 01:37:42;;;;;;;12.68;10.10;;;7.60;4.10;;;;;;7364958;19;20017;-62
2022/04/22 01:40:13;;;;;;;16.60;10.95;;;7.50;4.10;;;;;;7366558;19;20011;-62
2022/04/22 01:42:44;;;;;;;17.23;10.55;;;7.50;4.10;;;;;;7361345;19;20081;-62
2022/04/22 01:45:17;;;;;;;15.40;11.15;;;7.50;4.30;;;;;;7364245;19;20470;-62
2022/04/22 01:47:47;;;;;;;18.15;10.85;;;7.40;4.90;;;;;;7362114;19;20037;-62
2022/04/22 01:50:17;;;;;;;16.00;10.82;;;7.40;5.00;;;;;;7387162;19;20017;-62
2022/04/22 01:52:49;;;;;;;16.73;11.25;;;7.40;5.20;;;;;;7361921;19;20010;-62
2022/04/22 01:55:19;;;;;;;13.75;10.27;;;7.40;5.50;;;;;;7364527;19;20497;-63
2022/04/22 01:57:49;;;;;;;15.75;11.65;;;7.40;5.50;;;;;;7363949;19;20007;-63
2022/04/22 02:00:19;;;;;;;15.75;11.38;;;7.30;6.00;;;;;;7365419;19;20110;-63
2022/04/22 02:02:49;;;;;;;15.20;10.70;;;7.30;6.50;;;;;;7360765;19;20011;-61
2022/04/22 02:05:19;;;;;;;16.10;11.57;;;7.30;6.80;;;;;;7385487;19;20107;-62
2022/04/22 02:07:51;;;;;;;17.60;12.00;;;7.30;7.30;;;;;;7362125;19;20109;-61
2022/04/22 02:10:21;;;;;;;16.58;12.05;;;7.30;6.80;;;;;;7364108;19;20021;-61
2022/04/22 02:12:51;;;;;;;17.88;11.88;;;7.30;6.80;;;;;;7361685;19;20086;-61
2022/04/22 02:15:21;;;;;;;15.93;12.65;;;7.30;6.90;;;;;;7363947;19;20104;-61
2022/04/22 02:17:51;;;;;;;17.60;12.38;;;7.30;6.80;;;;;;7362698;19;20044;-61
2022/04/22 02:20:22;;;;;;;15.32;11.77;;;7.30;6.80;;;;;;7384735;19;20027;-62
2022/04/22 02:22:54;;;;;;;19.00;12.52;;;7.30;7.10;;;;;;7359823;19;20009;-62
2022/04/22 02:25:24;;;;;;;19.90;13.02;;;7.20;7.30;;;;;;7361610;19;20120;-62
2022/04/22 02:30:37;;;;;;;19.00;12.95;;;7.20;7.30;;;;;;7363698;19;20018;-62
2022/04/22 02:33:07;;;;;;;22.63;14.23;;;7.20;7.40;;;;;;7360532;19;20512;-62
2022/04/22 02:35:36;;;;;;;18.92;13.48;;;7.30;7.40;;;;;;7362624;19;20480;-62
2022/04/22 02:38:09;;;;;;;19.40;13.20;;;7.30;7.40;;;;;;7384317;19;20010;-62
2022/04/22 02:46:03;;;;;;;18.35;12.98;;;7.10;8.60;;;;;;7362992;19;20033;-63
2022/04/22 02:48:33;;;;;;;20.10;13.20;;;7.00;9.10;;;;;;7360182;19;20459;-64
2022/04/22 02:51:03;;;;;;;18.90;13.25;;;7.00;9.40;;;;;;7360175;19;20017;-63
2022/04/22 02:53:36;;;;;;;19.00;13.00;;;6.90;9.80;;;;;;7375584;19;20014;-64
2022/04/22 02:56:08;;;;;;;17.92;13.40;;;6.90;10.00;;;;;;7384622;19;20024;-63
2022/04/22 02:58:39;;;;;;;17.33;13.73;;;6.80;10.10;;;;;;7360367;19;20015;-63
2022/04/22 03:01:09;;;;;;;19.20;13.05;;;6.80;10.10;;;;;;7362024;19;20086;-63
2022/04/22 03:03:39;;;;;;;18.15;12.65;;;6.70;11.10;;;;;;7356253;19;20113;-63
2022/04/22 03:06:09;;;;;;;18.83;13.35;;;6.70;11.60;;;;;;7363568;19;20123;-62
2022/04/22 03:08:41;;;;;;;18.35;12.68;;;6.60;12.00;;;;;;7359260;19;20021;-62
2022/04/22 03:11:11;;;;;;;17.77;12.48;;;6.60;12.80;;;;;;7384102;19;20020;-61
2022/04/22 03:13:41;;;;;;;19.30;13.25;;;6.60;12.80;;;;;;7357144;19;20106;-62
2022/04/22 03:16:11;;;;;;;19.83;12.60;;;6.50;13.40;;;;;;7363276;19;20548;-62
2022/04/22 03:18:41;;;;;;;20.05;13.25;;;6.50;13.50;;;;;;7360457;19;20099;-62
2022/04/22 03:21:11;;;;;;;18.20;12.85;;;6.40;14.20;;;;;;7363620;19;20015;-62
2022/04/22 03:23:45;;;;;;;20.75;13.82;;;6.40;14.70;;;;;;7356576;19;20014;-61
2022/04/22 03:26:15;;;;;;;21.45;15.32;;;6.40;15.00;;;;;;7385229;19;20086;-61
2022/04/22 03:28:44;;;;;;;21.20;15.18;;;6.40;15.30;;;;;;7358524;19;20036;-61
2022/04/22 03:31:15;;;;;;;22.77;14.63;;;6.30;16.00;;;;;;7362693;19;20030;-62
2022/04/22 03:33:45;;;;;;;21.27;14.70;;;6.20;16.40;;;;;;7357338;19;20014;-61
2022/04/22 03:36:14;;;;;;;20.13;14.57;;;6.10;17.60;;;;;;7364046;19;20013;-62
2022/04/22 03:38:53;;;;;;;23.50;15.75;;;6.10;18.60;;;;;;7368149;19;20018;-62
2022/04/22 03:41:23;;;;;;;21.95;15.25;;;6.10;19.20;;;;;;7388015;19;20097;-62
2022/04/22 03:43:54;;;;;;;24.45;16.02;;;6.10;19.30;;;;;;7363288;19;20082;-62
2022/04/22 03:46:24;;;;;;;23.05;16.55;;;6.10;19.20;;;;;;7369766;19;20014;-62
2022/04/22 03:48:56;;;;;;;23.90;16.13;;;6.10;19.90;;;;;;7365647;19;20015;-61
2022/04/22 03:51:26;;;;;;;28.63;18.13;;;6.10;20.30;;;;;;7369834;19;20052;-62
2022/04/22 03:53:59;;;;;;;28.38;18.08;;;6.10;20.30;;;;;;7363427;19;20759;-62
2022/04/22 03:59:11;;;;;;;26.35;17.50;;;6.10;20.30;;;;;;7369248;19;20010;-62
2022/04/22 04:01:42;;;;;;;27.27;17.20;;;5.90;21.30;;;;;;7367569;19;20016;-62
2022/04/22 04:04:12;;;;;;;28.52;18.08;;;5.90;21.80;;;;;;7365395;19;20010;-62
2022/04/22 04:06:42;;;;;;;28.13;17.35;;;5.90;22.00;;;;;;7367166;19;20007;-61
2022/04/22 04:17:21;;;;;;;25.92;18.23;;;5.90;23.10;;;;;;7388189;19;20101;-62
2022/04/22 04:25:19;;;;;;;25.88;16.38;;;5.80;23.20;;;;;;7367757;19;20089;-63
2022/04/22 04:27:49;;;;;;;27.60;17.83;;;5.80;22.80;;;;;;7366571;19;20752;-62
2022/04/22 04:30:19;;;;;;;25.40;17.13;;;5.80;23.50;;;;;;7367557;19;20014;-62
2022/04/22 04:32:49;;;;;;;27.27;17.98;;;5.90;23.40;;;;;;7362725;19;20027;-62
2022/04/22 04:35:20;;;;;;;26.55;16.40;;;5.90;23.60;;;;;;7387480;19;20014;-62
2022/04/22 04:37:50;;;;;;;34.00;18.08;;;5.90;23.40;;;;;;7364755;19;20010;-63
2022/04/22 04:40:22;;;;;;;28.25;17.98;;;6.20;22.30;;;;;;7366996;19;20480;-64
2022/04/22 04:42:54;;;;;;;30.83;20.23;;;6.50;19.20;;;;;;7363435;19;20011;-62
2022/04/22 04:45:24;;;;;;;28.30;19.05;;;6.80;17.20;;;;;;7367515;19;20014;-61
2022/04/22 04:47:54;;;;;;;30.20;19.90;;;7.10;15.40;;;;;;7362833;19;22000;-62
2022/04/22 04:50:24;;;;;;;26.67;18.52;;;7.40;13.30;;;;;;7389402;19;20611;-62
2022/04/22 04:52:54;;;;;;;30.38;19.13;;;7.50;10.60;;;;;;7361715;19;20021;-62
2022/04/22 04:55:27;;;;;;;33.72;21.05;;;7.80;9.00;;;;;;7367633;19;20006;-62
2022/04/22 04:57:57;;;;;;;37.70;20.33;;;7.90;7.80;;;;;;7365664;19;20011;-62
2022/04/22 05:00:26;;;;;;;30.15;18.45;;;8.10;5.40;;;;;;7366706;19;20478;-62
2022/04/22 05:02:57;;;;;;;28.13;18.73;;;8.50;3.30;;;;;;7361747;19;20486;-62
2022/04/22 05:05:31;;;;;;;;;;;8.50;3.30;;;;;;7387520;19;20795;-61
2022/04/22 05:08:02;;;;;;;26.83;17.02;;;8.90;1.00;;;;;;7363857;19;20335;-61
2022/04/22 05:10:35;;;;;;;27.02;17.45;;;9.10;1.00;;;;;;7366065;19;20362;-62
2022/04/22 05:13:05;;;;;;;26.60;18.13;;;8.70;1.00;;;;;;7361010;19;20021;-62
2022/04/22 05:15:36;;;;;;;29.02;17.23;;;8.90;1.00;;;;;;7365585;19;20014;-63
2022/04/22 05:18:06;;;;;;;26.02;16.95;;;9.20;1.00;;;;;;7363385;19;20029;-63
2022/04/22 05:20:36;;;;;;;29.55;17.90;;;9.40;1.00;;;;;;7365896;19;20042;-62
2022/04/22 05:23:07;;;;;;;25.90;17.80;;;9.80;1.00;;;;;;7381514;19;20106;-62
2022/04/22 05:25:39;;;;;;;25.50;17.90;;;9.40;1.00;;;;;;7365637;19;20014;-62
2022/04/22 05:28:10;;;;;;;26.30;17.55;;;9.70;1.00;;;;;;7363166;19;20014;-63
2022/04/22 05:33:22;;;;;;;27.63;17.48;;;9.80;1.00;;;;;;7359071;19;20337;-61
2022/04/22 05:35:52;;;;;;;29.92;18.70;;;9.30;1.00;;;;;;7362739;19;20361;-63
2022/04/22 05:38:24;;;;;;;30.15;18.10;;;10.00;1.00;;;;;;7385339;19;20082;-63
2022/04/22 05:40:56;;;;;;;28.90;18.38;;;9.60;1.00;;;;;;7365254;19;20014;-63
2022/04/22 05:43:28;;;;;;;29.98;18.38;;;8.10;1.00;;;;;;7363724;19;20023;-63
2022/04/22 05:45:58;;;;;;;28.90;18.88;;;8.20;4.40;;;;;;7364358;19;20017;-63
2022/04/22 05:48:28;;;;;;;28.38;18.25;;;8.20;4.50;;;;;;7362180;19;20152;-63
2022/04/22 05:50:58;;;;;;;28.15;18.08;;;8.00;7.20;;;;;;7364773;19;20017;-63
2022/04/22 05:53:28;;;;;;;30.92;18.42;;;8.20;6.00;;;;;;7384148;19;20014;-62
2022/04/22 05:56:00;;;;;;;35.35;19.13;;;8.00;7.20;;;;;;7366504;19;20010;-61
2022/04/22 05:58:30;;;;;;;32.80;19.50;;;8.00;7.20;;;;;;7361883;19;20014;-61
2022/04/22 06:01:00;;;;;;;32.10;19.58;;;8.10;7.30;;;;;;7363486;19;20517;-62
2022/04/22 06:03:30;;;;;;;32.67;20.25;;;8.30;6.00;;;;;;7361826;19;20015;-62
2022/04/22 06:06:00;;;;;;;30.13;19.20;;;8.30;4.70;;;;;;7365054;19;20039;-63
2022/04/22 06:11:14;;;;;;;28.67;19.77;;;8.40;5.00;;;;;;7363892;19;20017;-62
2022/04/22 06:13:47;;;;;;;30.05;18.77;;;8.70;3.90;;;;;;7359525;19;20006;-63
2022/04/22 06:16:20;;;;;;;32.40;19.55;;;8.80;2.80;;;;;;7364815;19;20031;-63
2022/04/22 06:18:50;;;;;;;32.35;19.50;;;8.80;2.70;;;;;;7361867;19;20014;-63
2022/04/22 06:21:20;;;;;;;29.05;19.70;;;8.90;1.70;;;;;;7363638;19;20529;-62
2022/04/22 06:23:50;;;;;;;30.23;19.55;;;9.00;1.50;;;;;;7359076;19;20526;-62
2022/04/22 06:26:23;;;;;;;29.05;19.45;;;9.00;1.00;;;;;;7385508;19;20011;-63
2022/04/22 06:28:52;;;;;;;27.20;19.20;;;8.90;1.00;;;;;;7360410;19;20387;-63
2022/04/22 06:31:23;;;;;;;28.88;18.77;;;9.00;1.00;;;;;;7362471;19;20014;-61
2022/04/22 06:33:56;;;;;;;29.63;19.75;;;9.20;1.00;;;;;;7358682;19;20482;-62
2022/04/22 06:36:30;;;;;;;28.52;19.52;;;9.10;1.00;;;;;;7364243;19;20366;-63
2022/04/22 06:39:00;;;;;;;30.52;19.75;;;9.20;1.00;;;;;;7361305;19;20014;-61
2022/04/22 06:47:04;;;;;;;30.23;18.98;;;9.30;1.00;;;;;;7359772;19;20009;-62
2022/04/22 06:49:35;;;;;;;27.48;18.75;;;9.20;1.00;;;;;;7361888;19;20022;-62
2022/04/22 06:52:06;;;;;;;29.30;19.67;;;9.30;1.00;;;;;;7360803;19;20347;-63
2022/04/22 06:54:37;;;;;;;29.90;19.05;;;9.30;1.00;;;;;;7359675;19;20499;-62
2022/04/22 06:57:12;;;;;;;29.13;19.35;;;9.30;1.00;;;;;;7361967;19;20010;-63
2022/04/22 06:59:42;;;;;;;28.38;19.23;;;9.40;1.00;;;;;;7362957;19;20332;-63
2022/04/22 07:02:14;;;;;;;28.52;19.23;;;9.70;1.00;;;;;;7384138;19;20006;-63
2022/04/22 07:04:44;;;;;;;27.95;19.00;;;9.70;1.00;;;;;;7357578;19;20040;-62
2022/04/22 07:07:14;;;;;;;27.75;20.17;;;9.60;1.00;;;;;;7360109;19;20011;-63
2022/04/22 07:09:45;;;;;;;31.98;18.98;;;9.90;1.00;;;;;;7361848;19;20010;-63
2022/04/22 07:12:20;;;;;;;28.13;19.45;;;10.00;1.00;;;;;;7362545;19;20486;-62
2022/04/22 07:14:52;;;;;;;28.65;18.58;;;10.00;1.00;;;;;;7356660;19;20477;-63
2022/04/22 07:17:26;;;;;;;28.70;18.65;;;10.20;1.00;;;;;;7382471;19;20018;-63
2022/04/22 07:19:56;;;;;;;25.52;18.30;;;10.40;1.00;;;;;;7363026;19;20011;-63
2022/04/22 07:22:27;;;;;;;25.35;17.83;;;10.30;1.00;;;;;;7361701;19;20801;-62
2022/04/22 07:24:58;;;;;;;30.65;18.77;;;10.40;1.00;;;;;;7358723;19;20025;-63
2022/04/22 07:27:34;;;;;;;25.70;18.15;;;10.60;1.00;;;;;;7359683;19;20497;-63
2022/04/22 07:30:05;;;;;;;28.50;18.05;;;10.60;1.00;;;;;;7361814;19;20014;-61
2022/04/22 07:32:37;;;;;;;25.33;17.63;;;10.50;1.00;;;;;;7368751;19;20014;-62
2022/04/22 07:35:11;;;;;;;28.10;18.90;;;9.90;1.00;;;;;;7382846;19;20015;-62
2022/04/22 07:37:42;;;;;;;30.80;18.23;;;10.20;1.00;;;;;;7359992;19;20002;-62
2022/04/22 07:40:12;;;;;;;26.80;17.95;;;10.90;1.00;;;;;;7361888;19;20014;-62
2022/04/22 07:48:34;;;;;;;25.70;17.98;;;10.80;1.00;;;;;;7358809;19;20006;-61
2022/04/22 07:51:03;;;;;;;27.98;17.73;;;10.70;1.00;;;;;;7358814;19;20140;-62
2022/04/22 07:53:35;;;;;;;27.58;18.55;;;11.00;1.00;;;;;;7378611;19;20766;-62
2022/04/22 07:56:05;;;;;;;26.55;17.80;;;10.90;1.00;;;;;;7361927;19;20044;-62
2022/04/22 07:58:38;;;;;;;26.75;18.58;;;10.90;1.00;;;;;;7359036;19;20014;-62
2022/04/22 08:01:08;;;;;;;24.40;16.83;;;11.00;1.00;;;;;;7360952;19;20018;-62
2022/04/22 08:03:39;;;;;;;26.50;17.40;;;11.10;1.00;;;;;;7355063;19;20007;-62
2022/04/22 08:06:10;;;;;;;23.77;17.45;;;11.10;1.00;;;;;;7361627;19;20510;-63
2022/04/22 08:08:40;;;;;;;23.42;16.95;;;11.30;1.00;;;;;;7358356;19;20020;-63
2022/04/22 08:11:11;;;;;;;26.13;18.33;;;11.50;1.00;;;;;;7380719;19;20014;-63
2022/04/22 08:13:43;;;;;;;26.63;18.65;;;11.30;1.00;;;;;;7353768;19;20015;-63
2022/04/22 08:16:13;;;;;;;23.05;17.83;;;11.20;1.00;;;;;;7358628;19;20010;-63
2022/04/22 08:18:43;;;;;;;26.55;17.63;;;11.40;1.00;;;;;;7358269;19;20032;-64
2022/04/22 08:21:13;;;;;;;23.70;17.70;;;11.70;1.00;;;;;;7358159;19;20015;-62
2022/04/22 08:23:43;;;;;;;23.65;17.00;;;11.90;1.00;;;;;;7359895;19;20029;-63
2022/04/22 08:26:14;;;;;;;22.23;16.70;;;11.70;1.00;;;;;;7389278;19;20013;-63
2022/04/22 08:28:46;;;;;;;24.38;17.13;;;11.70;1.00;;;;;;7364378;19;20115;-61
2022/04/22 08:31:17;;;;;;;22.70;16.65;;;12.10;1.00;;;;;;7366232;19;20006;-63
2022/04/22 08:33:48;;;;;;;24.08;17.63;;;12.10;1.00;;;;;;7362464;19;20533;-62
2022/04/22 08:36:20;;;;;;;22.95;17.17;;;12.00;1.00;;;;;;7367893;19;20010;-64
2022/04/22 08:38:50;;;;;;;25.20;17.40;;;12.20;1.00;;;;;;7365576;19;20021;-62
2022/04/22 08:41:22;;;;;;;25.40;17.10;;;12.40;1.00;;;;;;7387917;19;20018;-62
2022/04/22 08:43:56;;;;;;;23.85;17.60;;;12.20;1.00;;;;;;7360260;19;20081;-62
2022/04/22 08:51:52;;;;;;;25.02;17.17;;;12.40;1.00;;;;;;7365378;19;20017;-62
2022/04/22 08:54:24;;;;;;;21.48;16.55;;;12.70;1.00;;;;;;7362227;19;20022;-62
2022/04/22 08:56:54;;;;;;;22.45;16.00;;;12.70;1.00;;;;;;7365009;19;20011;-63
2022/04/22 08:59:27;;;;;;;23.70;16.83;;;12.80;1.00;;;;;;7387439;19;20467;-63
2022/04/22 09:01:58;;;;;;;20.83;16.13;;;12.90;1.00;;;;;;7365206;19;20015;-61
2022/04/22 09:04:28;;;;;;;22.83;16.23;;;12.50;1.00;;;;;;7360324;19;20013;-63
2022/04/22 09:06:59;;;;;;;21.70;16.45;;;12.80;1.00;;;;;;7364748;19;20134;-62
2022/04/22 09:09:30;;;;;;;20.17;15.35;;;13.00;1.00;;;;;;7366333;19;20074;-63
2022/04/22 09:12:13;;;;;;;20.55;15.85;;;13.10;1.00;;;;;;7363944;19;20468;-63
2022/04/22 09:14:50;;;;;;;22.38;15.85;;;12.80;1.00;;;;;;7359746;19;20006;-63
2022/04/22 09:17:25;;;;;;;23.88;16.80;;;12.90;1.00;;;;;;7384366;19;20011;-64
2022/04/22 09:19:57;;;;;;;23.85;16.80;;;13.10;1.00;;;;;;7365110;19;20035;-63
2022/04/22 09:22:28;;;;;;;26.23;16.75;;;13.10;1.00;;;;;;7364240;19;20038;-62
2022/04/22 09:25:00;;;;;;;19.55;15.13;;;13.20;1.00;;;;;;7362916;19;20021;-63
2022/04/22 09:27:35;;;;;;;18.25;14.50;;;13.30;1.00;;;;;;7362920;19;20010;-63
2022/04/22 09:30:10;;;;;;;21.75;16.05;;;13.30;1.00;;;;;;7364471;19;20014;-63
2022/04/22 09:32:44;;;;;;;21.52;15.35;;;13.20;1.00;;;;;;7362686;19;20018;-63
2022/04/22 09:35:16;;;;;;;21.55;15.85;;;13.30;1.00;;;;;;7380655;19;20018;-63
2022/04/22 09:43:24;;;;;;;27.05;15.73;;;13.30;1.00;;;;;;7360001;19;20814;-63
2022/04/22 09:45:57;;;;;;;19.92;15.45;;;13.80;1.00;;;;;;7364485;19;20720;-62
2022/04/22 09:48:26;;;;;;;21.73;14.35;;;14.00;1.00;;;;;;7363303;19;20050;-62
2022/04/22 09:50:59;;;;;;;19.67;14.60;;;13.60;1.00;;;;;;7364587;19;20016;-64
2022/04/22 09:53:35;;;;;;;19.05;14.20;;;13.60;1.00;;;;;;7381493;19;20006;-62
2022/04/22 09:56:09;;;;;;;21.20;14.57;;;14.00;1.00;;;;;;7365649;19;20007;-63
2022/04/22 09:58:39;;;;;;;20.08;15.88;;;13.80;1.00;;;;;;7362319;19;20014;-63
2022/04/22 10:01:12;;;;;;;20.42;15.10;;;14.00;1.00;;;;;;7365145;19;20017;-63
2022/04/22 10:03:42;;;;;;;20.65;14.63;;;13.70;1.00;;;;;;7359248;19;20011;-63
2022/04/22 10:06:12;;;;;;;20.17;15.15;;;14.20;1.00;;;;;;7363749;19;20018;-63
2022/04/22 10:08:43;;;;;;;19.83;14.50;;;14.00;1.00;;;;;;7361966;19;20100;-63
2022/04/22 10:11:17;;;;;;;21.67;14.43;;;14.20;1.00;;;;;;7383976;19;20017;-63
2022/04/22 10:13:48;;;;;;;16.67;12.98;;;14.40;1.00;;;;;;7356347;19;20427;-63
2022/04/22 10:16:21;;;;;;;19.58;13.95;;;14.60;1.00;;;;;;7364038;19;20006;-63
2022/04/22 10:18:53;;;;;;;19.65;14.82;;;14.10;1.00;;;;;;7361280;19;20038;-63
2022/04/22 10:21:24;;;;;;;18.65;14.70;;;14.50;1.00;;;;;;7364238;19;20454;-63
2022/04/22 10:23:56;;;;;;;16.80;13.55;;;14.60;1.00;;;;;;7357841;19;20082;-62
2022/04/22 10:26:27;;;;;;;18.77;15.02;;;14.30;1.00;;;;;;7385612;19;20024;-62
2022/04/22 10:28:59;;;;;;;18.05;14.52;;;14.40;1.00;;;;;;7361385;19;20019;-64
2022/04/22 10:31:32;;;;;;;18.88;13.88;;;14.80;1.00;;;;;;7362206;19;20514;-63
2022/04/22 10:34:08;;;;;;;18.15;14.77;;;14.90;1.00;;;;;;7356749;19;20030;-63
2022/04/22 10:36:40;;;;;;;17.83;14.00;;;14.60;1.00;;;;;;7362919;19;20106;-64
2022/04/22 10:39:10;;;;;;;19.75;14.90;;;14.80;1.00;;;;;;7363435;19;20093;-63
2022/04/22 10:41:48;;;;;;;20.95;15.40;;;15.10;1.00;;;;;;7365468;19;20441;-63
2022/04/22 10:47:16;;;;;;;20.02;13.80;;;14.80;1.00;;;;;;7360215;19;20021;-63
2022/04/22 10:49:47;;;;;;;17.02;14.18;;;14.70;1.00;;;;;;7361022;19;20014;-62
2022/04/22 10:52:20;;;;;;;18.58;14.05;;;15.00;1.00;;;;;;7360441;19;20015;-61
2022/04/22 10:55:09;;;;;;;19.05;14.40;;;15.10;1.00;;;;;;7357262;19;20569;-66
2022/04/22 10:57:42;;;;;;;20.33;13.95;;;15.10;1.00;;;;;;7360150;19;20011;-63
2022/04/22 11:00:30;;;;;;;18.77;14.70;;;15.20;1.00;;;;;;7363192;19;20007;-64
2022/04/22 11:03:18;;;;;;;18.95;14.23;;;15.50;1.00;;;;;;7356939;19;20060;-63
2022/04/22 11:05:54;;;;;;;22.45;14.10;;;15.70;1.00;;;;;;7361390;19;20092;-65
2022/04/22 11:08:32;;;;;;;19.30;14.90;;;15.70;1.00;;;;;;7382294;19;20031;-64
2022/04/22 11:11:13;;;;;;;19.38;15.18;;;15.80;1.00;;;;;;7360150;19;20045;-64
2022/04/22 11:13:46;;;;;;;17.73;13.90;;;15.90;1.00;;;;;;7355842;19;20081;-64
2022/04/22 11:16:18;;;;;;;17.42;13.30;;;15.50;1.00;;;;;;7364324;19;20474;-63
2022/04/22 11:19:14;;;;;;;19.13;14.27;;;16.10;1.00;;;;;;7358377;19;20024;-64
2022/04/22 11:21:44;;;;;;;19.33;14.70;;;15.80;1.00;;;;;;7362662;19;20017;-63
2022/04/22 11:24:21;;;;;;;22.40;13.32;;;16.00;1.00;;;;;;7356215;19;20094;-63
2022/04/22 11:26:52;;;;;;;20.33;14.23;;;16.10;1.00;;;;;;7360734;19;20478;-62
2022/04/22 11:29:23;;;;;;;21.92;14.75;;;15.70;1.00;;;;;;7383656;19;20085;-62
2022/04/22 11:32:12;;;;;;;19.42;14.35;;;16.20;1.00;;;;;;7360501;19;20044;-63
2022/04/22 11:35:05;;;;;;;17.65;13.63;;;16.40;1.00;;;;;;7354683;19;20129;-63
2022/04/22 11:37:37;;;;;;;22.05;15.02;;;15.80;1.00;;;;;;7359779;19;20015;-62
2022/04/22 11:40:09;;;;;;;24.80;14.43;;;16.00;1.00;;;;;;7361351;19;20582;-64
2022/04/22 11:42:46;;;;;;;16.08;12.82;;;16.20;1.00;;;;;;7357483;19;20664;-64
2022/04/22 11:45:16;;;;;;;16.63;13.00;;;16.60;1.00;;;;;;7360354;19;20015;-67
2022/04/22 11:47:46;;;;;;;16.05;13.10;;;16.80;1.00;;;;;;7359234;19;20086;-63
2022/04/22 11:50:24;;;;;;;16.65;12.95;;;16.90;1.00;;;;;;7382514;19;20612;-66
2022/04/22 11:52:56;;;;;;;21.10;13.93;;;17.00;1.00;;;;;;7351617;19;20011;-64
2022/04/22 11:55:27;;;;;;;15.95;13.05;;;17.20;1.00;;;;;;7359220;19;20087;-63
2022/04/22 11:57:57;;;;;;;18.45;14.13;;;17.50;1.00;;;;;;7362167;19;20093;-63
2022/04/22 12:05:55;;;;;;;14.20;11.73;;;17.00;1.00;;;;;;7364471;19;20021;-62
2022/04/22 12:08:25;;;;;;;14.95;12.35;;;17.00;1.00;;;;;;7385310;19;20084;-62
2022/04/22 12:10:55;;;;;;;14.20;10.88;;;17.20;1.00;;;;;;7367614;19;20205;-63
2022/04/22 12:13:28;;;;;;;15.02;12.20;;;17.00;1.00;;;;;;7359233;19;20011;-62
2022/04/22 12:15:57;;;;;;;17.05;12.23;;;16.90;1.00;;;;;;7363812;19;20054;-63
2022/04/22 12:18:35;;;;;;;14.95;12.30;;;17.20;1.00;;;;;;7364869;19;20022;-61
2022/04/22 12:21:09;;;;;;;15.77;12.80;;;17.50;1.00;;;;;;7367100;19;20011;-62
2022/04/22 12:23:40;;;;;;;19.30;13.02;;;17.50;1.00;;;;;;7380035;19;20082;-63
2022/04/22 12:26:17;;;;;;;15.02;12.55;;;17.40;1.00;;;;;;7387810;19;20022;-62
2022/04/22 12:29:03;;;;;;;14.18;11.05;;;17.20;1.00;;;;;;7364779;19;20741;-63
2022/04/22 12:31:34;;;;;;;13.07;9.80;;;17.40;1.00;;;;;;7366437;19;20017;-62
2022/04/22 12:34:06;;;;;;;12.50;10.07;;;17.90;1.00;;;;;;7360367;19;20635;-63
2022/04/22 12:36:40;;;;;;;13.23;10.40;;;17.90;1.00;;;;;;7367490;19;20041;-62
2022/04/22 12:39:11;;;;;;;14.77;10.70;;;17.50;1.00;;;;;;7368880;19;20010;-62
2022/04/22 12:41:47;;;;;;;15.50;10.70;;;18.20;1.00;;;;;;7367802;19;20007;-64
2022/04/22 12:44:18;;;;;;;13.30;11.13;;;18.00;1.00;;;;;;7381515;19;20040;-62
2022/04/22 12:52:31;;;;;;;14.20;10.77;;;18.00;1.00;;;;;;7362281;19;20547;-62
2022/04/22 12:55:08;;;;;;;12.40;11.10;;;18.10;1.00;;;;;;7362207;19;20095;-63
2022/04/22 12:57:39;;;;;;;17.20;10.75;;;17.70;1.00;;;;;;7363905;19;20011;-61
2022/04/22 13:00:17;;;;;;;14.85;11.10;;;17.60;1.00;;;;;;7366544;19;20042;-63
2022/04/22 13:03:11;;;;;;;13.85;11.48;;;18.00;1.00;;;;;;7355683;19;20483;-62
2022/04/22 13:05:41;;;;;;;13.95;11.43;;;17.70;1.00;;;;;;7361347;19;20025;-63
2022/04/22 13:08:15;;;;;;;14.18;10.75;;;17.90;1.00;;;;;;7383280;19;20078;-62
2022/04/22 13:10:45;;;;;;;16.13;11.43;;;18.10;1.00;;;;;;7365324;19;20011;-62
2022/04/22 13:13:17;;;;;;;14.15;11.07;;;18.00;1.00;;;;;;7355249;19;20041;-63
2022/04/22 13:15:47;;;;;;;13.38;10.88;;;17.90;1.00;;;;;;7364543;19;20109;-62
2022/04/22 13:18:20;;;;;;;12.27;11.00;;;17.90;1.00;;;;;;7362490;19;20494;-62
2022/04/22 13:20:52;;;;;;;14.73;11.68;;;18.20;1.00;;;;;;7365260;19;20038;-62
2022/04/22 13:23:24;;;;;;;15.13;10.82;;;18.20;1.00;;;;;;7379726;19;20168;-63
2022/04/22 13:25:54;;;;;;;12.75;10.38;;;18.30;1.00;;;;;;7364153;19;20085;-63
2022/04/22 13:28:24;;;;;;;12.85;11.35;;;18.20;1.00;;;;;;7362634;19;20507;-63
2022/04/22 13:30:56;;;;;;;15.30;10.95;;;17.90;1.00;;;;;;7365147;19;20391;-62
2022/04/22 13:33:31;;;;;;;14.23;11.98;;;18.20;1.00;;;;;;7356908;19;20018;-62
2022/04/22 13:36:02;;;;;;;13.40;10.93;;;18.00;1.00;;;;;;7364882;19;20150;-63
2022/04/22 13:38:35;;;;;;;15.30;11.73;;;18.20;1.00;;;;;;7384267;19;20026;-62
2022/04/22 13:41:05;;;;;;;14.18;10.70;;;18.40;1.00;;;;;;7364549;19;20091;-63
2022/04/22 13:43:36;;;;;;;14.13;10.30;;;18.70;1.00;;;;;;7357387;19;20089;-63
2022/04/22 13:54:18;;;;;;;14.02;10.57;;;18.60;1.00;;;;;;7356434;19;20147;-63
2022/04/22 13:56:49;;;;;;;13.38;10.55;;;18.70;1.00;;;;;;7362251;19;20014;-62
2022/04/22 13:59:19;;;;;;;13.48;10.38;;;18.50;1.00;;;;;;7382994;19;20039;-62
2022/04/22 14:01:49;;;;;;;12.80;10.10;;;18.80;1.00;;;;;;7363529;19;20489;-63
2022/04/22 14:04:19;;;;;;;12.57;9.98;;;18.90;1.00;;;;;;7357504;19;20552;-63
2022/04/22 14:06:49;;;;;;;12.32;10.25;;;19.00;1.00;;;;;;7361389;19;20772;-63
2022/04/22 14:09:22;;;;;;;12.23;10.93;;;18.60;1.00;;;;;;7363044;19;20127;-63
2022/04/22 14:11:58;;;;;;;12.60;10.55;;;18.50;1.00;;;;;;7362064;19;20501;-63
2022/04/22 14:14:28;;;;;;;14.60;11.43;;;18.70;1.00;;;;;;7375568;19;20018;-62
2022/04/22 14:16:58;;;;;;;13.38;10.35;;;18.60;1.00;;;;;;7360296;19;20011;-63
2022/04/22 14:19:29;;;;;;;11.18;9.68;;;18.90;1.00;;;;;;7362646;19;20048;-64
2022/04/22 14:21:59;;;;;;;13.55;10.65;;;19.10;1.00;;;;;;7358690;19;20053;-62
2022/04/22 14:24:32;;;;;;;12.02;9.07;;;19.20;1.00;;;;;;7356726;19;20010;-63
2022/04/22 14:27:06;;;;;;;15.70;9.80;;;19.00;1.00;;;;;;7361183;19;20057;-63